Time;durP1;ratioP1;P1;durP2;ratioP2;P2;SDS_P1;SDS_P2;PMS_P1;PMS_P2;Temp;Humidity;BMP_temperature;BMP_pressure;BME280_temperature;BME280_humidity;BME280_pressure;Samples;Min_cycle;Max_cycle;Signal;HPM_P1;HPM_P2
2023/04/28 00:02:02;;;;;;;10.18;5.35;;;;;;;;;;5074253;28;20708;-62
2023/04/28 00:04:29;;;;;;;8.65;5.22;;;;;;;;;;5074198;28;20291;-61
2023/04/28 00:06:56;;;;;;;5.32;4.82;;;;;;;;;;5074388;28;20699;-62
2023/04/28 00:09:23;;;;;;;7.22;5.90;;;;;;;;;;5074406;28;20200;-61
2023/04/28 00:11:50;;;;;;;8.25;5.38;;;;;;;;;;5073885;28;20193;-61
2023/04/28 00:14:17;;;;;;;6.82;5.35;;;;;;;;;;5074220;28;20190;-61
2023/04/28 00:16:46;;;;;;;6.70;5.63;;;;;;;;;;5074076;28;20224;-62
2023/04/28 00:19:12;;;;;;;7.55;5.35;;;;;;;;;;5074286;28;20272;-62
2023/04/28 00:21:39;;;;;;;11.13;6.40;;;;;;;;;;5074252;28;20189;-62
2023/04/28 00:24:07;;;;;;;10.93;5.45;;;;;;;;;;5074194;28;20189;-62
2023/04/28 00:26:34;;;;;;;5.32;4.65;;;;;;;;;;5074306;28;20193;-62
2023/04/28 00:29:01;;;;;;;6.45;4.97;;;;;;;;;;5073977;28;20194;-62
2023/04/28 00:31:28;;;;;;;6.45;5.20;;;;;;;;;;5073892;28;20617;-62
2023/04/28 00:33:56;;;;;;;10.27;5.05;;;;;;;;;;5074067;28;20201;-61
2023/04/28 00:36:23;;;;;;;10.05;5.20;;;;;;;;;;5073841;28;20221;-62
2023/04/28 00:38:50;;;;;;;17.10;4.72;;;;;;;;;;5073869;28;20193;-61
2023/04/28 00:41:17;;;;;;;6.07;4.47;;;;;;;;;;5073867;28;20224;-62
2023/04/28 00:43:45;;;;;;;8.88;5.78;;;;;;;;;;5073721;28;20189;-61
2023/04/28 00:46:12;;;;;;;5.97;5.22;;;;;;;;;;5073586;28;20185;-61
2023/04/28 00:48:40;;;;;;;7.18;5.13;;;;;;;;;;5074095;28;20281;-62
2023/04/28 00:51:08;;;;;;;6.97;4.60;;;;;;;;;;5073689;28;20190;-61
2023/04/28 00:53:35;;;;;;;6.17;5.10;;;;;;;;;;5040231;28;955828;-62
2023/04/28 00:56:02;;;;;;;5.72;5.15;;;;;;;;;;5074477;28;20318;-61
2023/04/28 00:58:30;;;;;;;4.47;4.07;;;;;;;;;;5074478;28;20199;-62
2023/04/28 01:01:02;;;;;;;6.80;4.07;;;;;;;;;;5074531;28;20227;-62
2023/04/28 01:03:29;;;;;;;4.97;4.53;;;;;;;;;;5074464;28;20273;-62
2023/04/28 01:05:56;;;;;;;5.90;4.00;;;;;;;;;;5074525;28;20291;-62
2023/04/28 01:08:28;;;;;;;4.25;3.85;;;;;;;;;;5074709;28;20188;-61
2023/04/28 01:10:55;;;;;;;8.25;4.97;;;;;;;;;;5074364;28;20199;-62
2023/04/28 01:13:22;;;;;;;5.13;4.25;;;;;;;;;;5074457;28;20284;-62
2023/04/28 01:15:49;;;;;;;4.32;3.90;;;;;;;;;;5074439;28;20582;-64
2023/04/28 01:18:16;;;;;;;5.82;3.50;;;;;;;;;;5074334;28;20287;-62
2023/04/28 01:20:43;;;;;;;4.60;4.10;;;;;;;;;;5074433;28;20186;-62
2023/04/28 01:23:12;;;;;;;6.85;3.70;;;;;;;;;;5073492;28;20193;-62
2023/04/28 01:25:40;;;;;;;7.43;4.07;;;;;;;;;;5073904;28;20308;-62
2023/04/28 01:28:07;;;;;;;5.85;3.30;;;;;;;;;;5074011;28;20197;-62
2023/04/28 01:30:35;;;;;;;5.20;3.22;;;;;;;;;;5073697;28;20704;-62
2023/04/28 01:33:02;;;;;;;3.92;3.47;;;;;;;;;;5073839;28;20259;-62
2023/04/28 01:35:29;;;;;;;6.45;3.88;;;;;;;;;;5073860;28;20277;-62
2023/04/28 01:37:56;;;;;;;3.67;3.38;;;;;;;;;;5073635;28;20568;-62
2023/04/28 01:40:23;;;;;;;5.35;3.53;;;;;;;;;;5073515;28;20263;-62
2023/04/28 01:42:52;;;;;;;5.20;3.50;;;;;;;;;;5073869;28;20232;-62
2023/04/28 01:45:18;;;;;;;5.95;4.18;;;;;;;;;;5074001;28;20284;-62
2023/04/28 01:47:45;;;;;;;4.55;3.85;;;;;;;;;;5073618;28;20196;-62
2023/04/28 01:50:12;;;;;;;3.95;3.65;;;;;;;;;;5073605;28;20279;-62
2023/04/28 01:52:39;;;;;;;4.93;3.35;;;;;;;;;;5073437;28;20186;-62
2023/04/28 01:55:07;;;;;;;4.70;3.58;;;;;;;;;;5073634;28;20192;-62
2023/04/28 01:57:34;;;;;;;13.13;4.30;;;;;;;;;;5073432;28;20283;-61
2023/04/28 02:00:03;;;;;;;9.55;3.33;;;;;;;;;;5073462;28;20201;-62
2023/04/28 02:02:30;;;;;;;4.80;3.88;;;;;;;;;;5073466;28;20197;-62
2023/04/28 02:04:57;;;;;;;4.47;3.97;;;;;;;;;;5073278;28;20197;-62
2023/04/28 02:07:25;;;;;;;4.25;3.85;;;;;;;;;;5073076;28;20198;-61
2023/04/28 02:09:52;;;;;;;5.40;3.72;;;;;;;;;;5073399;28;20599;-62
2023/04/28 02:12:19;;;;;;;5.65;3.60;;;;;;;;;;5073272;28;20189;-61
2023/04/28 02:14:46;;;;;;;3.47;3.15;;;;;;;;;;5073201;28;20193;-62
2023/04/28 02:17:14;;;;;;;4.95;3.35;;;;;;;;;;5073372;28;20215;-62
2023/04/28 02:19:41;;;;;;;3.97;3.40;;;;;;;;;;5073076;28;20218;-61
2023/04/28 02:22:08;;;;;;;3.83;3.38;;;;;;;;;;5073370;28;20232;-61
2023/04/28 02:24:36;;;;;;;3.80;3.40;;;;;;;;;;5073298;28;20598;-62
2023/04/28 02:27:04;;;;;;;5.88;3.53;;;;;;;;;;5073111;28;20743;-61
2023/04/28 02:29:31;;;;;;;4.85;3.60;;;;;;;;;;5073109;28;20240;-61
2023/04/28 02:31:58;;;;;;;4.20;3.53;;;;;;;;;;5072954;28;20267;-61
2023/04/28 02:34:26;;;;;;;4.30;3.25;;;;;;;;;;5072677;28;20280;-61
2023/04/28 02:36:53;;;;;;;3.85;3.55;;;;;;;;;;5073107;28;20228;-61
2023/04/28 02:39:24;;;;;;;5.13;3.60;;;;;;;;;;5072918;28;20277;-61
2023/04/28 02:41:51;;;;;;;6.78;3.47;;;;;;;;;;5073145;28;20702;-61
2023/04/28 02:44:18;;;;;;;4.80;4.13;;;;;;;;;;5072782;28;20207;-62
2023/04/28 02:46:45;;;;;;;6.00;3.42;;;;;;;;;;5072956;28;20196;-61
2023/04/28 02:49:12;;;;;;;4.80;3.67;;;;;;;;;;5072986;28;20280;-61
2023/04/28 02:51:40;;;;;;;4.22;3.78;;;;;;;;;;5072808;28;20197;-62
2023/04/28 02:54:07;;;;;;;4.15;3.40;;;;;;;;;;5072365;28;20697;-61
2023/04/28 02:56:35;;;;;;;3.90;3.50;;;;;;;;;;5072702;28;20221;-61
2023/04/28 02:59:02;;;;;;;7.18;3.17;;;;;;;;;;5072634;28;20247;-61
2023/04/28 03:01:30;;;;;;;3.20;2.90;;;;;;;;;;5072562;28;20311;-61
2023/04/28 03:03:57;;;;;;;4.32;3.67;;;;;;;;;;5072885;28;20208;-61
2023/04/28 03:06:24;;;;;;;3.83;3.53;;;;;;;;;;5072685;28;20251;-61
2023/04/28 03:08:52;;;;;;;4.32;3.30;;;;;;;;;;5072635;28;20197;-61
2023/04/28 03:11:19;;;;;;;5.07;3.20;;;;;;;;;;5072605;28;20196;-62
2023/04/28 03:13:46;;;;;;;4.43;2.75;;;;;;;;;;5072549;28;20204;-62
2023/04/28 03:16:13;;;;;;;4.03;3.63;;;;;;;;;;5072903;28;20194;-63
2023/04/28 03:18:40;;;;;;;3.92;3.63;;;;;;;;;;5072820;28;20652;-63
2023/04/28 03:21:07;;;;;;;4.10;3.75;;;;;;;;;;5072601;28;20197;-63
2023/04/28 03:23:34;;;;;;;3.72;3.33;;;;;;;;;;5072670;28;20301;-62
2023/04/28 03:26:02;;;;;;;3.47;3.17;;;;;;;;;;5072520;28;20247;-63
2023/04/28 03:28:29;;;;;;;5.75;3.75;;;;;;;;;;5072966;28;20257;-63
2023/04/28 03:30:56;;;;;;;4.18;3.72;;;;;;;;;;5072933;28;20196;-63
2023/04/28 03:33:23;;;;;;;7.50;4.72;;;;;;;;;;5072500;28;20276;-63
2023/04/28 03:35:50;;;;;;;4.28;3.60;;;;;;;;;;5072598;28;20600;-63
2023/04/28 03:38:17;;;;;;;4.80;3.80;;;;;;;;;;5072332;28;20224;-63
2023/04/28 03:40:44;;;;;;;6.50;4.60;;;;;;;;;;5072356;28;20276;-63
2023/04/28 03:43:13;;;;;;;5.10;3.95;;;;;;;;;;5072451;28;20196;-63
2023/04/28 03:45:40;;;;;;;6.78;4.03;;;;;;;;;;5072707;28;20544;-63
2023/04/28 03:48:07;;;;;;;4.18;3.70;;;;;;;;;;5075424;28;20198;-63
2023/04/28 03:50:34;;;;;;;4.72;3.30;;;;;;;;;;5075920;28;20284;-62
2023/04/28 03:53:01;;;;;;;3.92;3.63;;;;;;;;;;5075727;28;20229;-62
2023/04/28 03:55:28;;;;;;;7.20;4.03;;;;;;;;;;5075760;28;20587;-63
2023/04/28 03:57:55;;;;;;;4.60;3.70;;;;;;;;;;5075860;28;20309;-63
2023/04/28 04:00:24;;;;;;;4.05;3.63;;;;;;;;;;5075938;28;20277;-63
2023/04/28 04:02:51;;;;;;;7.07;4.57;;;;;;;;;;5075737;28;20189;-63
2023/04/28 04:05:18;;;;;;;4.55;3.72;;;;;;;;;;5075750;28;20729;-63
2023/04/28 04:07:44;;;;;;;5.30;3.80;;;;;;;;;;5075613;28;20652;-63
2023/04/28 04:10:12;;;;;;;6.95;3.85;;;;;;;;;;5075345;28;20713;-63
2023/04/28 04:12:39;;;;;;;7.32;3.65;;;;;;;;;;5075718;28;20279;-62
2023/04/28 04:15:06;;;;;;;10.82;4.40;;;;;;;;;;5075593;28;20190;-63
2023/04/28 04:17:35;;;;;;;4.55;3.63;;;;;;;;;;5075367;28;20257;-63
2023/04/28 04:20:02;;;;;;;5.50;4.40;;;;;;;;;;5075283;28;20193;-62
2023/04/28 04:22:28;;;;;;;4.88;4.10;;;;;;;;;;5075375;28;20612;-63
2023/04/28 04:24:56;;;;;;;4.90;3.65;;;;;;;;;;5075140;28;20193;-63
2023/04/28 04:27:23;;;;;;;4.75;4.03;;;;;;;;;;5075367;28;20630;-63
2023/04/28 04:29:50;;;;;;;11.90;4.10;;;;;;;;;;5075104;28;20221;-63
2023/04/28 04:32:16;;;;;;;6.03;3.75;;;;;;;;;;5075301;28;20614;-63
2023/04/28 04:34:45;;;;;;;4.60;3.95;;;;;;;;;;5075026;28;20672;-62
2023/04/28 04:37:12;;;;;;;4.07;3.47;;;;;;;;;;5074872;28;20307;-62
2023/04/28 04:39:39;;;;;;;13.48;4.88;;;;;;;;;;5075169;28;20195;-63
2023/04/28 04:42:06;;;;;;;8.73;4.18;;;;;;;;;;5075048;28;20189;-63
2023/04/28 04:44:33;;;;;;;7.80;4.05;;;;;;;;;;5074974;28;20549;-63
2023/04/28 04:47:00;;;;;;;8.48;3.72;;;;;;;;;;5074974;28;20247;-63
2023/04/28 04:49:26;;;;;;;4.70;3.75;;;;;;;;;;5074755;28;20194;-63
2023/04/28 04:51:55;;;;;;;5.10;3.58;;;;;;;;;;5074725;28;20198;-62
2023/04/28 04:54:22;;;;;;;4.25;3.65;;;;;;;;;;5074574;28;20218;-63
2023/04/28 04:56:49;;;;;;;5.28;3.70;;;;;;;;;;5074614;28;20550;-63
2023/04/28 04:59:16;;;;;;;6.63;4.38;;;;;;;;;;5073362;28;20578;-63
2023/04/28 05:01:43;;;;;;;14.55;5.22;;;;;;;;;;5074858;28;20196;-63
2023/04/28 05:04:10;;;;;;;8.88;4.65;;;;;;;;;;5074629;28;20192;-62
2023/04/28 05:06:37;;;;;;;9.00;5.43;;;;;;;;;;5074529;28;20560;-63
2023/04/28 05:09:05;;;;;;;5.55;5.05;;;;;;;;;;5074426;28;20299;-61
2023/04/28 05:11:32;;;;;;;4.32;3.92;;;;;;;;;;5074327;28;20194;-63
2023/04/28 05:13:59;;;;;;;5.32;4.28;;;;;;;;;;5074255;28;20200;-63
2023/04/28 05:16:26;;;;;;;5.78;4.60;;;;;;;;;;5074166;28;20712;-63
2023/04/28 05:18:53;;;;;;;6.63;4.47;;;;;;;;;;5073941;28;20224;-63
2023/04/28 05:21:20;;;;;;;5.60;4.78;;;;;;;;;;5074337;28;20280;-63
2023/04/28 05:23:47;;;;;;;9.15;5.45;;;;;;;;;;5074180;28;20185;-63
2023/04/28 05:26:16;;;;;;;9.45;5.25;;;;;;;;;;5074172;28;20225;-63
2023/04/28 05:28:43;;;;;;;8.95;6.00;;;;;;;;;;5073939;28;20557;-63
2023/04/28 05:31:10;;;;;;;9.48;5.68;;;;;;;;;;5073704;28;20186;-63
2023/04/28 05:33:37;;;;;;;9.25;6.40;;;;;;;;;;5073919;28;20198;-63
2023/04/28 05:36:04;;;;;;;11.15;5.68;;;;;;;;;;5073917;28;20196;-63
2023/04/28 05:38:32;;;;;;;7.85;6.60;;;;;;;;;;5073590;28;20283;-62
2023/04/28 05:40:59;;;;;;;11.60;6.60;;;;;;;;;;5073714;28;20190;-63
2023/04/28 05:43:27;;;;;;;6.72;6.05;;;;;;;;;;5073560;28;20289;-63
2023/04/28 05:45:54;;;;;;;11.07;5.70;;;;;;;;;;5073434;28;20244;-63
2023/04/28 05:48:21;;;;;;;7.53;6.40;;;;;;;;;;5073375;28;20195;-63
2023/04/28 05:50:48;;;;;;;8.10;5.70;;;;;;;;;;5073645;28;20276;-63
2023/04/28 05:53:15;;;;;;;14.45;5.40;;;;;;;;;;5073464;28;20470;-62
2023/04/28 05:55:42;;;;;;;6.43;5.03;;;;;;;;;;5073364;28;20197;-63
2023/04/28 05:58:09;;;;;;;9.70;5.30;;;;;;;;;;5073332;28;20325;-63
2023/04/28 06:00:38;;;;;;;7.75;4.25;;;;;;;;;;5073146;28;21007;-64
2023/04/28 06:03:05;;;;;;;6.57;4.72;;;;;;;;;;5073415;28;20190;-63
2023/04/28 06:05:32;;;;;;;10.93;4.82;;;;;;;;;;5073272;28;20225;-63
2023/04/28 06:07:59;;;;;;;7.13;4.60;;;;;;;;;;5073207;28;20189;-63
2023/04/28 06:10:26;;;;;;;8.82;4.68;;;;;;;;;;5072812;28;20458;-63
2023/04/28 06:12:53;;;;;;;8.70;4.00;;;;;;;;;;5073107;28;20225;-63
2023/04/28 06:15:21;;;;;;;8.63;5.20;;;;;;;;;;5072856;28;20535;-63
2023/04/28 06:17:50;;;;;;;8.10;4.10;;;;;;;;;;5073137;28;20450;-63
2023/04/28 06:20:17;;;;;;;4.83;4.40;;;;;;;;;;5073089;28;20924;-63
2023/04/28 06:22:44;;;;;;;12.20;4.20;;;;;;;;;;5073163;28;20934;-63
2023/04/28 06:25:10;;;;;;;7.97;4.17;;;;;;;;;;5072899;28;20801;-63
2023/04/28 06:27:37;;;;;;;6.67;4.10;;;;;;;;;;5072869;28;20444;-63
2023/04/28 06:30:05;;;;;;;8.97;4.33;;;;;;;;;;5073009;28;20455;-63
2023/04/28 06:32:32;;;;;;;5.63;3.63;;;;;;;;;;5073274;28;20539;-63
2023/04/28 06:35:00;;;;;;;6.60;4.23;;;;;;;;;;5072830;28;20423;-63
2023/04/28 06:37:27;;;;;;;4.93;3.23;;;;;;;;;;5072660;28;20517;-62
2023/04/28 06:39:54;;;;;;;4.97;3.63;;;;;;;;;;5072833;28;20551;-63
2023/04/28 06:42:21;;;;;;;5.00;3.67;;;;;;;;;;5072688;28;20456;-62
2023/04/28 06:44:48;;;;;;;6.50;3.57;;;;;;;;;;5072934;28;20454;-61
2023/04/28 06:47:15;;;;;;;3.57;2.77;;;;;;;;;;5072798;28;20773;-61
2023/04/28 06:49:44;;;;;;;4.80;3.33;;;;;;;;;;5072694;28;20444;-62
2023/04/28 06:52:13;;;;;;;4.57;3.50;;;;;;;;;;5072589;28;20811;-62
2023/04/28 06:54:40;;;;;;;4.47;3.57;;;;;;;;;;5072190;28;20472;-62
2023/04/28 06:57:07;;;;;;;6.93;5.37;;;;;;;;;;5072538;28;20521;-62
2023/04/28 06:59:34;;;;;;;5.23;3.90;;;;;;;;;;5072547;28;20510;-62
2023/04/28 07:02:01;;;;;;;5.00;3.93;;;;;;;;;;5072526;28;20836;-61
2023/04/28 07:04:28;;;;;;;5.93;3.77;;;;;;;;;;5072624;28;20493;-62
2023/04/28 07:06:55;;;;;;;7.93;3.93;;;;;;;;;;5072245;28;20937;-62
2023/04/28 07:09:24;;;;;;;6.53;3.30;;;;;;;;;;5072450;28;20471;-61
2023/04/28 07:11:51;;;;;;;9.10;4.43;;;;;;;;;;5072337;28;20540;-61
2023/04/28 07:14:17;;;;;;;4.67;3.20;;;;;;;;;;5072271;28;20486;-62
2023/04/28 07:16:45;;;;;;;7.63;4.40;;;;;;;;;;5072483;28;20472;-63
2023/04/28 07:19:11;;;;;;;10.53;3.60;;;;;;;;;;5072207;28;20537;-65
2023/04/28 07:21:38;;;;;;;8.27;3.80;;;;;;;;;;5072818;28;20422;-67
2023/04/28 07:24:06;;;;;;;5.37;4.30;;;;;;;;;;5076357;28;20448;-60
2023/04/28 07:26:35;;;;;;;13.50;3.67;;;;;;;;;;5076445;28;20547;-62
2023/04/28 07:29:02;;;;;;;4.50;4.10;;;;;;;;;;5076334;28;20550;-58
2023/04/28 07:31:29;;;;;;;7.67;4.23;;;;;;;;;;5076185;28;20479;-62
2023/04/28 07:33:55;;;;;;;4.13;3.80;;;;;;;;;;5076038;28;20803;-59
2023/04/28 07:36:22;;;;;;;11.47;4.03;;;;;;;;;;5075862;28;20422;-63
2023/04/28 07:38:49;;;;;;;8.37;4.00;;;;;;;;;;5076082;28;20866;-64
2023/04/28 07:41:17;;;;;;;6.30;3.30;;;;;;;;;;5075985;28;20480;-60
2023/04/28 07:43:45;;;;;;;3.90;3.50;;;;;;;;;;5075776;28;21038;-60
2023/04/28 07:46:13;;;;;;;6.50;3.67;;;;;;;;;;5075931;28;20450;-61
2023/04/28 07:48:40;;;;;;;8.90;5.17;;;;;;;;;;5075765;28;20487;-60
2023/04/28 07:51:07;;;;;;;7.90;3.60;;;;;;;;;;5075646;28;20542;-59
2023/04/28 07:53:34;;;;;;;4.53;3.37;;;;;;;;;;5075677;28;20562;-60
2023/04/28 07:56:01;;;;;;;4.33;3.83;;;;;;;;;;5075643;28;20913;-60
2023/04/28 07:58:28;;;;;;;6.50;4.83;;;;;;;;;;5075310;28;21169;-62
2023/04/28 08:00:56;;;;;;;3.50;3.10;;;;;;;;;;5075334;28;20427;-59
2023/04/28 08:03:23;;;;;;;6.30;3.20;;;;;;;;;;5075709;28;20542;-62
2023/04/28 08:05:50;;;;;;;3.90;3.43;;;;;;;;;;5075572;28;20490;-61
2023/04/28 08:08:17;;;;;;;5.77;3.67;;;;;;;;;;5075538;28;20491;-63
2023/04/28 08:10:44;;;;;;;4.40;3.30;;;;;;;;;;5075255;28;21029;-63
2023/04/28 08:13:11;;;;;;;8.20;3.40;;;;;;;;;;5075492;28;20471;-64
2023/04/28 08:15:39;;;;;;;6.90;3.77;;;;;;;;;;5075291;28;20457;-59
2023/04/28 08:18:07;;;;;;;4.97;3.90;;;;;;;;;;5075007;28;20467;-69
2023/04/28 08:20:34;;;;;;;3.83;3.53;;;;;;;;;;5075323;28;20448;-60
2023/04/28 08:23:02;;;;;;;6.30;3.83;;;;;;;;;;5075116;28;20433;-62
2023/04/28 08:25:29;;;;;;;6.67;3.70;;;;;;;;;;5075296;28;20826;-63
2023/04/28 08:27:57;;;;;;;9.23;4.37;;;;;;;;;;5075212;28;20456;-62
2023/04/28 08:30:24;;;;;;;6.83;3.73;;;;;;;;;;5075066;28;20451;-63
2023/04/28 08:32:51;;;;;;;7.37;3.83;;;;;;;;;;5075314;28;20546;-63
2023/04/28 08:35:20;;;;;;;8.20;4.30;;;;;;;;;;5075092;28;20506;-62
2023/04/28 08:37:48;;;;;;;5.27;4.07;;;;;;;;;;5074927;28;20452;-61
2023/04/28 08:40:15;;;;;;;8.13;4.17;;;;;;;;;;5075060;28;20458;-63
2023/04/28 08:42:44;;;;;;;6.70;4.30;;;;;;;;;;5074221;28;20860;-62
2023/04/28 08:45:14;;;;;;;5.47;4.60;;;;;;;;;;5073539;28;20450;-60
2023/04/28 08:47:44;;;;;;;6.53;4.00;;;;;;;;;;5074903;28;20254;-60
2023/04/28 08:50:12;;;;;;;4.33;3.97;;;;;;;;;;5075094;28;20494;-58
2023/04/28 08:52:41;;;;;;;4.23;3.83;;;;;;;;;;5074582;28;20812;-63
2023/04/28 08:55:09;;;;;;;5.17;3.70;;;;;;;;;;5074667;28;20893;-68
2023/04/28 08:57:38;;;;;;;4.80;4.05;;;;;;;;;;5073979;28;20984;-64
2023/04/28 09:00:05;;;;;;;7.13;4.27;;;;;;;;;;5074647;28;20217;-62
2023/04/28 09:02:32;;;;;;;4.13;3.40;;;;;;;;;;5074539;28;20538;-60
2023/04/28 09:04:59;;;;;;;6.73;4.60;;;;;;;;;;5074677;28;20446;-61
2023/04/28 09:07:26;;;;;;;8.13;3.93;;;;;;;;;;5074046;28;20877;-60
2023/04/28 09:10:15;;;;;;;7.28;4.63;;;;;;;;;;5073087;28;20921;-62
2023/04/28 09:12:43;;;;;;;6.27;4.67;;;;;;;;;;5074279;28;20521;-60
2023/04/28 09:15:10;;;;;;;5.20;4.70;;;;;;;;;;5074162;28;20531;-59
2023/04/28 09:17:48;;;;;;;7.20;5.17;;;;;;;;;;5074131;28;20529;-65
2023/04/28 09:20:20;;;;;;;11.57;4.50;;;;;;;;;;5073924;28;20994;-62
2023/04/28 09:22:47;;;;;;;5.20;3.87;;;;;;;;;;5073914;28;20848;-63
2023/04/28 09:25:16;;;;;;;7.23;4.67;;;;;;;;;;5073934;28;20451;-61
2023/04/28 09:27:43;;;;;;;6.37;4.73;;;;;;;;;;5074145;28;20452;-62
2023/04/28 09:30:10;;;;;;;9.87;4.57;;;;;;;;;;5073910;28;20430;-64
2023/04/28 09:32:37;;;;;;;12.00;4.97;;;;;;;;;;5073598;28;20448;-62
2023/04/28 09:35:06;;;;;;;6.57;4.33;;;;;;;;;;5073704;28;20448;-60
2023/04/28 09:37:33;;;;;;;8.43;4.70;;;;;;;;;;5073884;28;20927;-60
2023/04/28 09:40:04;;;;;;;6.73;5.33;;;;;;;;;;5073956;28;20835;-60
2023/04/28 09:42:33;;;;;;;6.23;4.47;;;;;;;;;;5073670;28;20446;-60
2023/04/28 09:45:01;;;;;;;5.00;4.50;;;;;;;;;;5072812;28;20498;-59
2023/04/28 09:47:29;;;;;;;10.40;5.17;;;;;;;;;;5073386;28;20455;-59
2023/04/28 09:49:56;;;;;;;6.53;4.70;;;;;;;;;;5073439;28;20542;-59
2023/04/28 09:52:24;;;;;;;7.57;5.00;;;;;;;;;;5073542;28;20542;-60
2023/04/28 09:54:51;;;;;;;6.30;5.20;;;;;;;;;;5073401;28;20479;-61
2023/04/28 09:57:19;;;;;;;8.60;5.10;;;;;;;;;;5073139;28;20489;-63
2023/04/28 09:59:48;;;;;;;9.00;4.60;;;;;;;;;;5073289;28;20482;-63
2023/04/28 10:02:15;;;;;;;5.53;5.00;;;;;;;;;;5073210;28;20975;-63
2023/04/28 10:04:43;;;;;;;5.27;4.77;;;;;;;;;;5073418;28;20475;-65
2023/04/28 10:07:10;;;;;;;8.03;5.13;;;;;;;;;;5073282;28;20887;-62
2023/04/28 10:09:38;;;;;;;10.60;5.27;;;;;;;;;;5073307;28;20444;-60
2023/04/28 10:12:05;;;;;;;10.70;5.23;;;;;;;;;;5073174;28;20455;-58
2023/04/28 10:14:32;;;;;;;6.50;5.80;;;;;;;;;;5072263;28;20457;-61
2023/04/28 10:17:02;;;;;;;6.50;5.25;;;;;;;;;;5071973;28;20458;-61
2023/04/28 10:19:29;;;;;;;8.03;6.10;;;;;;;;;;5073342;28;20223;-64
2023/04/28 10:22:01;;;;;;;8.17;5.37;;;;;;;;;;5072986;28;20449;-60
2023/04/28 10:24:30;;;;;;;11.53;5.00;;;;;;;;;;5073199;28;20554;-66
2023/04/28 10:27:04;;;;;;;8.38;5.70;;;;;;;;;;5072643;28;20821;-59
2023/04/28 10:29:32;;;;;;;5.60;5.10;;;;;;;;;;5072866;28;20476;-59
2023/04/28 10:32:18;;;;;;;7.10;5.73;;;;;;;;;;5072987;28;20452;-60
2023/04/28 10:34:47;;;;;;;9.53;5.43;;;;;;;;;;5072656;28;20453;-60
2023/04/28 10:37:14;;;;;;;7.77;5.13;;;;;;;;;;5072488;28;20812;-59
2023/04/28 10:39:41;;;;;;;7.60;5.27;;;;;;;;;;5072339;28;20480;-61
2023/04/28 10:42:23;;;;;;;5.70;4.65;;;;;;;;;;5071624;28;20458;-62
2023/04/28 10:44:50;;;;;;;8.27;6.10;;;;;;;;;;5071385;28;20460;-63
2023/04/28 10:47:17;;;;;;;5.97;4.30;;;;;;;;;;5072311;28;20191;-65
2023/04/28 10:50:06;;;;;;;8.75;5.25;;;;;;;;;;5072377;28;20881;-63
2023/04/28 10:52:49;;;;;;;6.90;5.13;;;;;;;;;;5072828;28;20261;-63
2023/04/28 10:55:31;;;;;;;7.93;5.30;;;;;;;;;;5072207;28;20932;-66
2023/04/28 10:58:17;;;;;;;4.80;4.33;;;;;;;;;;5076911;28;20452;-63
2023/04/28 11:00:46;;;;;;;11.50;5.20;;;;;;;;;;5076919;28;20897;-63
2023/04/28 11:03:28;;;;;;;5.83;5.27;;;;;;;;;;5077007;28;20477;-64
2023/04/28 11:06:20;;;;;;;5.93;5.43;;;;;;;;;;5076808;28;20540;-63
2023/04/28 11:08:47;;;;;;;7.10;5.77;;;;;;;;;;5076676;28;20513;-63
2023/04/28 11:11:18;;;;;;;7.60;4.97;;;;;;;;;;5076490;28;20445;-64
2023/04/28 11:13:46;;;;;;;6.17;5.33;;;;;;;;;;5076752;28;20471;-63
2023/04/28 11:16:15;;;;;;;7.10;5.93;;;;;;;;;;5076628;28;20826;-64
2023/04/28 11:18:49;;;;;;;8.23;6.03;;;;;;;;;;5076702;28;20459;-64
2023/04/28 11:21:17;;;;;;;5.50;5.00;;;;;;;;;;5076488;28;20482;-64
2023/04/28 11:23:46;;;;;;;5.33;4.83;;;;;;;;;;5076505;28;20449;-64
2023/04/28 11:26:13;;;;;;;10.67;5.20;;;;;;;;;;5076502;28;20443;-64
2023/04/28 11:28:47;;;;;;;7.53;5.10;;;;;;;;;;5076429;28;20530;-64
2023/04/28 11:31:17;;;;;;;7.80;4.97;;;;;;;;;;5076486;28;20479;-64
2023/04/28 11:33:45;;;;;;;12.57;5.13;;;;;;;;;;5076270;28;20456;-64
2023/04/28 11:36:22;;;;;;;7.03;5.37;;;;;;;;;;5076110;28;21015;-63
2023/04/28 11:38:50;;;;;;;6.70;4.87;;;;;;;;;;5076132;28;20448;-64
2023/04/28 11:41:17;;;;;;;6.07;5.00;;;;;;;;;;5075985;28;20505;-64
2023/04/28 11:43:45;;;;;;;8.83;4.70;;;;;;;;;;5075959;28;20535;-63
2023/04/28 11:46:16;;;;;;;5.20;4.70;;;;;;;;;;5075796;28;20938;-63
2023/04/28 11:48:43;;;;;;;9.47;4.73;;;;;;;;;;5075816;28;20803;-63
2023/04/28 11:51:10;;;;;;;6.10;5.10;;;;;;;;;;5075880;28;20448;-64
2023/04/28 11:53:43;;;;;;;6.13;4.77;;;;;;;;;;5075521;28;20473;-63
2023/04/28 11:56:12;;;;;;;6.00;4.80;;;;;;;;;;5075486;28;20447;-64
2023/04/28 11:58:39;;;;;;;11.47;4.70;;;;;;;;;;5074971;28;20985;-64
2023/04/28 12:01:07;;;;;;;4.77;4.20;;;;;;;;;;5075016;28;20480;-63
2023/04/28 12:03:34;;;;;;;5.40;4.03;;;;;;;;;;5075615;28;20452;-63
2023/04/28 12:06:01;;;;;;;8.27;4.20;;;;;;;;;;5075466;28;20446;-63
2023/04/28 12:08:28;;;;;;;5.13;4.63;;;;;;;;;;5074890;28;20498;-63
2023/04/28 12:11:09;;;;;;;7.13;5.20;;;;;;;;;;5075245;28;20544;-63
2023/04/28 12:13:37;;;;;;;5.50;4.63;;;;;;;;;;5075138;28;20457;-64
2023/04/28 12:16:05;;;;;;;7.40;4.47;;;;;;;;;;5075472;28;20534;-63
2023/04/28 12:18:32;;;;;;;4.83;4.33;;;;;;;;;;5075133;28;20943;-63
2023/04/28 12:20:59;;;;;;;10.53;4.90;;;;;;;;;;5075332;28;20584;-64
2023/04/28 12:23:30;;;;;;;5.37;4.60;;;;;;;;;;5075304;28;20532;-63
2023/04/28 12:25:58;;;;;;;9.07;4.50;;;;;;;;;;5074996;28;20852;-64
2023/04/28 12:28:25;;;;;;;10.20;5.03;;;;;;;;;;5075405;28;20449;-64
2023/04/28 12:31:03;;;;;;;5.60;4.37;;;;;;;;;;5075280;28;20877;-63
2023/04/28 12:33:32;;;;;;;9.63;5.00;;;;;;;;;;5075107;28;20455;-63
2023/04/28 12:36:00;;;;;;;7.87;5.00;;;;;;;;;;5074942;28;20456;-64
2023/04/28 12:38:27;;;;;;;6.50;4.97;;;;;;;;;;5073248;28;20459;-63
2023/04/28 12:40:54;;;;;;;6.63;4.53;;;;;;;;;;5075017;28;20485;-63
2023/04/28 12:43:22;;;;;;;6.40;4.67;;;;;;;;;;5075050;28;20827;-64
2023/04/28 12:45:49;;;;;;;6.37;5.07;;;;;;;;;;5075161;28;20869;-63
2023/04/28 12:48:18;;;;;;;6.23;4.30;;;;;;;;;;5074922;28;20449;-64
2023/04/28 12:50:45;;;;;;;7.10;5.07;;;;;;;;;;5074709;28;20940;-64
2023/04/28 12:53:12;;;;;;;5.73;4.90;;;;;;;;;;5074389;28;20477;-64
2023/04/28 12:55:39;;;;;;;9.67;5.77;;;;;;;;;;5074813;28;20453;-64
2023/04/28 12:58:06;;;;;;;8.33;4.97;;;;;;;;;;5074672;28;20453;-64
2023/04/28 13:00:33;;;;;;;5.90;4.03;;;;;;;;;;5074487;28;20871;-64
2023/04/28 13:03:00;;;;;;;5.00;4.50;;;;;;;;;;5074548;28;20461;-64
2023/04/28 13:05:28;;;;;;;8.10;5.00;;;;;;;;;;5074330;28;20533;-64
2023/04/28 13:07:55;;;;;;;9.97;4.87;;;;;;;;;;5074315;28;20811;-64
2023/04/28 13:10:22;;;;;;;4.40;4.00;;;;;;;;;;5074385;28;20450;-64
2023/04/28 13:12:49;;;;;;;7.70;4.93;;;;;;;;;;5074412;28;20458;-64
2023/04/28 13:15:16;;;;;;;7.40;5.10;;;;;;;;;;5074387;28;20470;-64
2023/04/28 13:17:45;;;;;;;8.50;4.33;;;;;;;;;;5074185;28;20454;-64
2023/04/28 13:20:12;;;;;;;7.10;4.60;;;;;;;;;;5072906;28;21004;-64
2023/04/28 13:22:40;;;;;;;8.03;5.20;;;;;;;;;;5074214;28;20487;-64
2023/04/28 13:25:08;;;;;;;5.83;4.13;;;;;;;;;;5074120;28;20457;-64
2023/04/28 13:27:35;;;;;;;14.27;4.90;;;;;;;;;;5074061;28;20456;-64
2023/04/28 13:30:04;;;;;;;9.03;4.60;;;;;;;;;;5073902;28;20476;-64
2023/04/28 13:32:31;;;;;;;12.13;5.00;;;;;;;;;;5073622;28;21018;-64
2023/04/28 13:34:58;;;;;;;10.00;5.13;;;;;;;;;;5073823;28;20454;-64
2023/04/28 13:37:25;;;;;;;7.90;4.37;;;;;;;;;;5073821;28;20452;-63
2023/04/28 13:39:53;;;;;;;5.80;4.50;;;;;;;;;;5073769;28;20473;-64
2023/04/28 13:42:20;;;;;;;9.13;5.10;;;;;;;;;;5073640;28;20888;-63
2023/04/28 13:44:48;;;;;;;6.17;4.70;;;;;;;;;;5073789;28;20518;-64
2023/04/28 13:47:15;;;;;;;10.30;5.07;;;;;;;;;;5073503;28;20457;-64
2023/04/28 13:49:42;;;;;;;5.00;4.50;;;;;;;;;;5073734;28;20461;-64
2023/04/28 13:52:09;;;;;;;6.90;4.23;;;;;;;;;;5073725;28;20451;-64
2023/04/28 13:54:36;;;;;;;5.50;4.20;;;;;;;;;;5073541;28;20473;-64
2023/04/28 13:57:04;;;;;;;8.83;4.63;;;;;;;;;;5073502;28;20453;-64
2023/04/28 13:59:31;;;;;;;4.87;4.27;;;;;;;;;;5073313;28;20453;-64
2023/04/28 14:01:58;;;;;;;8.30;4.47;;;;;;;;;;5073258;28;20448;-64
2023/04/28 14:04:25;;;;;;;11.10;3.43;;;;;;;;;;5073469;28;20450;-64
2023/04/28 14:06:52;;;;;;;5.37;4.50;;;;;;;;;;5073435;28;20975;-64
2023/04/28 14:09:20;;;;;;;8.93;4.47;;;;;;;;;;5073404;28;20452;-64
2023/04/28 14:11:46;;;;;;;9.60;5.00;;;;;;;;;;5073210;28;20498;-64
2023/04/28 14:14:15;;;;;;;9.57;4.40;;;;;;;;;;5073130;28;20453;-64
2023/04/28 14:16:42;;;;;;;4.67;4.27;;;;;;;;;;5073329;28;20450;-62
2023/04/28 14:19:09;;;;;;;12.23;5.33;;;;;;;;;;5073128;28;20540;-62
2023/04/28 14:21:36;;;;;;;5.70;4.50;;;;;;;;;;5073177;28;20945;-63
2023/04/28 14:24:03;;;;;;;4.90;4.10;;;;;;;;;;5073100;28;21009;-63
2023/04/28 14:26:30;;;;;;;5.23;3.83;;;;;;;;;;5073023;28;20543;-63
2023/04/28 14:28:58;;;;;;;4.10;3.70;;;;;;;;;;5072769;28;20449;-63
2023/04/28 14:31:27;;;;;;;4.23;3.80;;;;;;;;;;5072928;28;21026;-63
2023/04/28 14:33:54;;;;;;;4.17;3.83;;;;;;;;;;5073189;28;20488;-63
2023/04/28 14:36:21;;;;;;;5.63;3.70;;;;;;;;;;5073068;28;20457;-63
2023/04/28 14:38:48;;;;;;;7.40;4.40;;;;;;;;;;5073132;28;20799;-63
2023/04/28 14:41:15;;;;;;;6.80;3.80;;;;;;;;;;5072823;28;20984;-63
2023/04/28 14:43:42;;;;;;;7.80;3.97;;;;;;;;;;5072985;28;20506;-63
2023/04/28 14:46:09;;;;;;;7.10;3.70;;;;;;;;;;5072955;28;20475;-63